Time;durP1;ratioP1;P1;durP2;ratioP2;P2;SDS_P1;SDS_P2;PMS_P1;PMS_P2;Temp;Humidity;BMP_temperature;BMP_pressure;BME280_temperature;BME280_humidity;BME280_pressure;Samples;Min_cycle;Max_cycle;Signal;HPM_P1;HPM_P2
2024/03/30 00:02:16;;;;;;;19.05;2.40;;;;;;;;;;5014853;28;20033;-86
2024/03/30 00:04:42;;;;;;;12.25;2.53;;;;;;;;;;5014767;28;20037;-87
2024/03/30 00:07:08;;;;;;;5.43;0.82;;;;;;;;;;5032057;28;20065;-86
2024/03/30 00:09:34;;;;;;;9.43;2.25;;;;;;;;;;5031312;28;20464;-86
2024/03/30 00:12:01;;;;;;;7.07;2.30;;;;;;;;;;5032014;28;20037;-86
2024/03/30 00:14:27;;;;;;;3.80;1.42;;;;;;;;;;5031163;28;20026;-86
2024/03/30 00:16:53;;;;;;;6.47;1.15;;;;;;;;;;5032623;28;20666;-86
2024/03/30 00:19:19;;;;;;;5.20;1.35;;;;;;;;;;5013677;28;20192;-86
2024/03/30 00:21:45;;;;;;;15.50;1.17;;;;;;;;;;5026107;28;20962;-86
2024/03/30 00:24:11;;;;;;;9.30;1.52;;;;;;;;;;5020462;28;20037;-86
2024/03/30 00:26:37;;;;;;;10.65;1.52;;;;;;;;;;5035467;28;20038;-85
2024/03/30 00:29:03;;;;;;;11.35;2.97;;;;;;;;;;5002676;28;20089;-85
2024/03/30 00:31:31;;;;;;;12.75;0.98;;;;;;;;;;5041299;28;20033;-86
2024/03/30 00:33:57;;;;;;;6.40;1.45;;;;;;;;;;5034254;28;20018;-86
2024/03/30 00:36:23;;;;;;;11.30;1.95;;;;;;;;;;5015626;28;20037;-86
2024/03/30 00:38:49;;;;;;;8.70;1.75;;;;;;;;;;5021710;28;20030;-86
2024/03/30 00:41:15;;;;;;;5.38;1.58;;;;;;;;;;5030440;28;20112;-86
2024/03/30 00:43:43;;;;;;;4.57;1.52;;;;;;;;;;5012937;28;20037;-85
2024/03/30 00:46:09;;;;;;;11.45;2.78;;;;;;;;;;5031149;28;20467;-87
2024/03/30 00:48:35;;;;;;;10.90;2.15;;;;;;;;;;5012727;28;20040;-88
2024/03/30 00:51:01;;;;;;;5.47;1.02;;;;;;;;;;5007218;28;20053;-87
2024/03/30 00:53:27;;;;;;;8.55;1.55;;;;;;;;;;5007695;28;20480;-86
2024/03/30 00:56:00;;;;;;;7.70;2.78;;;;;;;;;;5023339;28;20100;-87
2024/03/30 00:58:26;;;;;;;20.77;2.58;;;;;;;;;;5016494;28;20034;-86
2024/03/30 01:00:52;;;;;;;17.73;1.45;;;;;;;;;;5015707;28;20041;-86
2024/03/30 01:03:18;;;;;;;9.13;2.08;;;;;;;;;;5022476;28;20080;-86
2024/03/30 01:05:44;;;;;;;13.32;1.42;;;;;;;;;;5012369;28;20112;-86
2024/03/30 01:08:10;;;;;;;27.13;4.20;;;;;;;;;;5013824;28;20496;-87
2024/03/30 01:10:37;;;;;;;7.25;1.17;;;;;;;;;;5014427;28;20045;-86
2024/03/30 01:13:03;;;;;;;8.25;2.65;;;;;;;;;;5011790;28;20073;-87
2024/03/30 01:15:29;;;;;;;19.15;2.47;;;;;;;;;;5013334;28;20069;-87
2024/03/30 01:17:55;;;;;;;13.90;2.88;;;;;;;;;;5025892;28;20113;-87
2024/03/30 01:20:21;;;;;;;9.40;2.45;;;;;;;;;;5011419;28;20041;-87
2024/03/30 01:22:47;;;;;;;4.82;2.05;;;;;;;;;;5020336;28;20072;-86
2024/03/30 01:25:14;;;;;;;16.63;2.53;;;;;;;;;;5011968;28;20067;-86
2024/03/30 01:27:40;;;;;;;4.57;0.98;;;;;;;;;;5013367;28;20053;-86
2024/03/30 01:30:09;;;;;;;16.33;3.95;;;;;;;;;;5009860;28;20656;-86
2024/03/30 01:32:35;;;;;;;15.18;3.85;;;;;;;;;;5019805;28;20029;-86
2024/03/30 01:35:01;;;;;;;15.27;2.97;;;;;;;;;;5013852;28;20034;-86
2024/03/30 01:37:27;;;;;;;9.15;3.50;;;;;;;;;;5025292;28;20732;-86
2024/03/30 01:39:53;;;;;;;10.32;3.97;;;;;;;;;;5002596;28;20742;-85
2024/03/30 01:42:26;;;;;;;21.25;3.53;;;;;;;;;;5007221;28;20061;-86
2024/03/30 01:44:52;;;;;;;9.38;2.78;;;;;;;;;;5010538;28;20113;-85
2024/03/30 01:47:18;;;;;;;11.48;1.80;;;;;;;;;;5012474;28;20108;-86
2024/03/30 01:49:45;;;;;;;12.68;3.95;;;;;;;;;;5015501;28;20065;-85
2024/03/30 01:52:11;;;;;;;8.23;2.45;;;;;;;;;;5028334;28;20558;-86
2024/03/30 01:54:38;;;;;;;11.80;3.20;;;;;;;;;;5008662;28;20125;-86
2024/03/30 01:57:04;;;;;;;21.25;1.85;;;;;;;;;;5026849;28;20025;-86
2024/03/30 01:59:30;;;;;;;21.52;1.58;;;;;;;;;;5011821;28;20721;-87
2024/03/30 02:01:56;;;;;;;13.88;2.13;;;;;;;;;;5010900;28;20136;-87
2024/03/30 02:04:23;;;;;;;6.45;2.50;;;;;;;;;;5011736;28;20473;-85
2024/03/30 02:06:50;;;;;;;12.40;3.70;;;;;;;;;;5028887;28;20033;-86
2024/03/30 02:09:16;;;;;;;8.30;1.08;;;;;;;;;;5011056;28;20140;-85
2024/03/30 02:11:42;;;;;;;19.40;4.85;;;;;;;;;;5028844;28;20124;-86
2024/03/30 02:14:09;;;;;;;8.52;2.03;;;;;;;;;;5011821;28;20041;-86
2024/03/30 02:16:35;;;;;;;14.23;3.28;;;;;;;;;;5029193;28;20545;-85
2024/03/30 02:19:03;;;;;;;29.40;4.30;;;;;;;;;;5038319;28;20840;-86
2024/03/30 02:21:29;;;;;;;11.32;3.15;;;;;;;;;;5037908;28;20563;-86
2024/03/30 02:23:55;;;;;;;15.45;3.15;;;;;;;;;;5034117;28;20096;-86
2024/03/30 02:26:21;;;;;;;18.60;2.78;;;;;;;;;;5034175;28;20034;-86
2024/03/30 02:28:48;;;;;;;14.63;2.55;;;;;;;;;;5030349;28;20040;-86
2024/03/30 02:31:15;;;;;;;12.43;3.03;;;;;;;;;;5011324;28;20083;-85
2024/03/30 02:33:41;;;;;;;10.25;2.25;;;;;;;;;;5008595;28;20133;-86
2024/03/30 02:36:07;;;;;;;9.13;2.47;;;;;;;;;;5024833;28;21610;-86
2024/03/30 02:38:33;;;;;;;9.57;3.55;;;;;;;;;;5013246;28;20034;-87
2024/03/30 02:40:59;;;;;;;16.45;3.95;;;;;;;;;;5024760;28;20037;-86
2024/03/30 02:43:25;;;;;;;13.15;2.47;;;;;;;;;;5028236;28;20079;-86
2024/03/30 02:45:52;;;;;;;13.82;3.17;;;;;;;;;;5029046;28;20092;-85
2024/03/30 02:48:18;;;;;;;4.05;1.25;;;;;;;;;;5011239;28;20813;-85
2024/03/30 02:50:44;;;;;;;8.93;2.42;;;;;;;;;;5027567;28;20056;-85
2024/03/30 02:53:10;;;;;;;16.40;3.88;;;;;;;;;;5028906;28;20034;-86
2024/03/30 02:55:36;;;;;;;11.00;3.38;;;;;;;;;;5017322;28;20025;-85
2024/03/30 02:58:02;;;;;;;19.75;3.35;;;;;;;;;;5030605;28;20585;-85
2024/03/30 03:00:28;;;;;;;15.55;2.72;;;;;;;;;;5032106;28;20079;-85
2024/03/30 03:02:54;;;;;;;12.98;1.13;;;;;;;;;;5008777;28;20030;-86
2024/03/30 03:05:20;;;;;;;15.65;2.55;;;;;;;;;;5030037;28;20029;-86
2024/03/30 03:07:46;;;;;;;10.00;3.20;;;;;;;;;;5029564;28;20036;-85
2024/03/30 03:10:12;;;;;;;17.25;3.17;;;;;;;;;;5010659;28;20044;-85
2024/03/30 03:12:38;;;;;;;15.05;3.03;;;;;;;;;;5018450;28;20029;-85
2024/03/30 03:15:04;;;;;;;4.35;0.88;;;;;;;;;;5031040;28;20104;-85
2024/03/30 03:17:39;;;;;;;11.07;2.65;;;;;;;;;;5033194;28;20060;-85
2024/03/30 03:20:06;;;;;;;15.82;1.88;;;;;;;;;;5038958;28;20033;-85
2024/03/30 03:22:35;;;;;;;6.75;1.73;;;;;;;;;;5028971;28;20034;-85
2024/03/30 03:25:02;;;;;;;12.45;2.33;;;;;;;;;;5010061;28;20562;-85
2024/03/30 03:27:28;;;;;;;9.05;2.95;;;;;;;;;;5029026;28;20039;-85
2024/03/30 03:29:54;;;;;;;8.68;2.20;;;;;;;;;;5029864;28;20033;-85
2024/03/30 03:32:20;;;;;;;8.95;3.10;;;;;;;;;;5011674;28;20037;-85
2024/03/30 03:34:46;;;;;;;12.10;2.50;;;;;;;;;;5013718;28;20048;-85
2024/03/30 03:37:12;;;;;;;10.32;2.25;;;;;;;;;;5045509;28;20048;-85
2024/03/30 03:39:38;;;;;;;4.95;1.45;;;;;;;;;;5029736;28;20080;-85
2024/03/30 03:42:04;;;;;;;10.93;3.15;;;;;;;;;;5039411;28;20080;-85
2024/03/30 03:44:30;;;;;;;7.38;2.75;;;;;;;;;;5036800;28;20041;-85
2024/03/30 03:46:57;;;;;;;9.55;3.30;;;;;;;;;;5033469;28;20044;-85
2024/03/30 03:49:23;;;;;;;14.27;3.42;;;;;;;;;;5033094;28;20087;-85
2024/03/30 03:51:50;;;;;;;13.82;2.33;;;;;;;;;;5039809;28;20422;-85
2024/03/30 03:54:16;;;;;;;15.10;2.45;;;;;;;;;;5020926;28;20041;-85
2024/03/30 03:56:41;;;;;;;16.13;3.65;;;;;;;;;;5036795;28;20025;-85
2024/03/30 03:59:07;;;;;;;10.52;2.67;;;;;;;;;;5041983;28;20052;-85
2024/03/30 04:01:33;;;;;;;22.27;2.45;;;;;;;;;;5036193;28;20717;-86
2024/03/30 04:03:59;;;;;;;11.50;2.83;;;;;;;;;;5035059;28;20045;-85
2024/03/30 04:06:25;;;;;;;18.83;3.53;;;;;;;;;;5033096;28;20422;-86
2024/03/30 04:08:51;;;;;;;14.27;3.78;;;;;;;;;;5014682;28;20045;-85
2024/03/30 04:11:17;;;;;;;13.55;3.70;;;;;;;;;;5031582;28;20083;-85
2024/03/30 04:13:43;;;;;;;6.38;1.50;;;;;;;;;;5016227;28;20479;-85
2024/03/30 04:16:09;;;;;;;4.95;2.70;;;;;;;;;;5024865;28;20108;-86
2024/03/30 04:18:36;;;;;;;25.85;5.32;;;;;;;;;;5032682;28;20068;-86
2024/03/30 04:21:05;;;;;;;15.75;3.13;;;;;;;;;;5028725;28;20095;-86
2024/03/30 04:23:32;;;;;;;13.80;4.22;;;;;;;;;;5033989;28;20038;-87
2024/03/30 04:26:09;;;;;;;6.00;1.55;;;;;;;;;;5009932;28;20056;-86
2024/03/30 04:28:35;;;;;;;24.40;3.70;;;;;;;;;;5007381;28;20040;-86
2024/03/30 04:31:02;;;;;;;12.88;2.90;;;;;;;;;;5030706;28;20065;-86
2024/03/30 04:33:28;;;;;;;10.75;2.22;;;;;;;;;;5031551;28;20116;-85
2024/03/30 04:35:54;;;;;;;41.22;3.30;;;;;;;;;;5030542;28;20040;-86
2024/03/30 04:38:20;;;;;;;26.45;2.13;;;;;;;;;;5029479;28;20029;-86
2024/03/30 04:40:46;;;;;;;9.63;3.15;;;;;;;;;;5030933;28;20029;-87
2024/03/30 04:43:12;;;;;;;12.30;4.38;;;;;;;;;;5019295;28;20068;-87
2024/03/30 04:45:38;;;;;;;13.65;4.13;;;;;;;;;;5032101;28;20036;-86
2024/03/30 04:48:04;;;;;;;6.60;2.70;;;;;;;;;;5016610;28;20033;-86
2024/03/30 04:50:30;;;;;;;12.30;2.50;;;;;;;;;;5034258;28;20491;-85
2024/03/30 04:52:56;;;;;;;22.90;3.03;;;;;;;;;;5011648;28;20026;-86
2024/03/30 04:55:22;;;;;;;11.07;3.17;;;;;;;;;;5040976;28;20039;-86
2024/03/30 04:57:48;;;;;;;8.93;3.05;;;;;;;;;;5014525;28;20036;-86
2024/03/30 05:00:14;;;;;;;13.77;3.20;;;;;;;;;;5018266;28;20534;-86
2024/03/30 05:02:40;;;;;;;8.95;3.08;;;;;;;;;;5034996;28;20037;-86
2024/03/30 05:05:06;;;;;;;26.15;3.45;;;;;;;;;;5020307;28;20030;-87
2024/03/30 05:07:32;;;;;;;12.77;4.07;;;;;;;;;;5020576;28;20025;-87
2024/03/30 05:09:59;;;;;;;26.38;3.17;;;;;;;;;;5026961;28;20026;-85
2024/03/30 05:12:25;;;;;;;13.73;2.35;;;;;;;;;;5023895;28;20076;-86
2024/03/30 05:14:51;;;;;;;15.60;5.32;;;;;;;;;;5033475;28;20033;-85
2024/03/30 05:17:17;;;;;;;7.15;3.17;;;;;;;;;;5023391;28;20049;-86
2024/03/30 05:22:27;;;;;;;15.57;3.28;;;;;;;;;;5030604;28;20040;-85
2024/03/30 05:24:53;;;;;;;28.15;3.40;;;;;;;;;;5016120;28;20786;-86
2024/03/30 05:27:19;;;;;;;25.88;3.67;;;;;;;;;;5019332;28;20037;-85
2024/03/30 05:29:45;;;;;;;27.67;3.40;;;;;;;;;;5031034;28;20037;-86
2024/03/30 05:32:11;;;;;;;14.98;2.47;;;;;;;;;;5020874;28;20458;-86
2024/03/30 05:34:37;;;;;;;12.43;2.58;;;;;;;;;;5012290;28;20036;-86
2024/03/30 05:37:04;;;;;;;9.27;2.67;;;;;;;;;;5030858;28;20132;-86
2024/03/30 05:39:30;;;;;;;24.38;4.07;;;;;;;;;;5012262;28;20037;-82
2024/03/30 05:41:56;;;;;;;15.40;2.72;;;;;;;;;;5031077;28;20052;-88
2024/03/30 05:44:22;;;;;;;8.20;2.80;;;;;;;;;;5013127;28;20060;-88
2024/03/30 05:46:48;;;;;;;17.15;3.47;;;;;;;;;;5027081;28;20467;-87
2024/03/30 05:49:14;;;;;;;20.17;4.45;;;;;;;;;;5011105;28;20070;-87
2024/03/30 05:51:40;;;;;;;10.32;2.97;;;;;;;;;;5031647;28;20041;-85
2024/03/30 05:54:06;;;;;;;9.90;2.60;;;;;;;;;;5014573;28;20026;-84
2024/03/30 05:56:32;;;;;;;20.67;4.57;;;;;;;;;;5033047;28;20029;-85
2024/03/30 05:58:58;;;;;;;36.55;3.97;;;;;;;;;;5024360;28;20108;-84
2024/03/30 06:01:24;;;;;;;18.35;4.85;;;;;;;;;;5035559;28;20037;-85
2024/03/30 06:03:50;;;;;;;10.68;2.25;;;;;;;;;;5013400;28;20059;-84
2024/03/30 06:06:16;;;;;;;15.20;4.40;;;;;;;;;;5033195;28;20071;-85
2024/03/30 06:08:42;;;;;;;23.65;3.75;;;;;;;;;;5032194;28;20037;-84
2024/03/30 06:11:08;;;;;;;12.75;2.45;;;;;;;;;;5030166;28;20030;-86
2024/03/30 06:13:34;;;;;;;16.80;3.30;;;;;;;;;;5033283;28;20489;-85
2024/03/30 06:16:06;;;;;;;20.95;4.95;;;;;;;;;;5027863;28;20108;-84
2024/03/30 06:18:32;;;;;;;40.03;4.72;;;;;;;;;;5012683;28;20037;-88
2024/03/30 06:20:58;;;;;;;15.40;4.93;;;;;;;;;;5011569;28;20069;-86
2024/03/30 06:23:24;;;;;;;5.60;2.90;;;;;;;;;;5037368;28;20111;-87
2024/03/30 06:25:50;;;;;;;26.40;3.83;;;;;;;;;;5016502;28;20176;-87
2024/03/30 06:28:16;;;;;;;20.85;3.38;;;;;;;;;;5012560;28;20531;-86
2024/03/30 06:30:42;;;;;;;23.70;7.38;;;;;;;;;;5029985;28;20049;-84
2024/03/30 06:33:10;;;;;;;22.33;2.95;;;;;;;;;;5015192;28;20021;-87
2024/03/30 06:35:37;;;;;;;20.48;3.13;;;;;;;;;;5018684;28;20059;-85
2024/03/30 06:38:03;;;;;;;7.72;1.77;;;;;;;;;;5031560;28;20467;-85
2024/03/30 06:46:00;;;;;;;17.48;4.40;;;;;;;;;;5030089;28;20044;-85
2024/03/30 06:48:26;;;;;;;18.20;4.72;;;;;;;;;;5014727;28;20030;-87
2024/03/30 06:50:52;;;;;;;15.68;2.58;;;;;;;;;;5014983;28;20146;-85
2024/03/30 06:53:18;;;;;;;8.50;2.30;;;;;;;;;;5025000;28;20899;-86
2024/03/30 06:55:44;;;;;;;18.02;5.13;;;;;;;;;;5009655;28;20155;-86
2024/03/30 06:58:10;;;;;;;27.63;5.57;;;;;;;;;;5027426;28;20133;-86
2024/03/30 07:00:37;;;;;;;33.15;6.35;;;;;;;;;;5009814;28;20041;-86
2024/03/30 07:03:03;;;;;;;10.40;2.90;;;;;;;;;;5029639;28;20030;-86
2024/03/30 07:05:29;;;;;;;15.50;3.80;;;;;;;;;;5010539;28;20028;-86
2024/03/30 07:07:55;;;;;;;9.43;3.72;;;;;;;;;;5028188;28;20110;-87
2024/03/30 07:10:21;;;;;;;29.67;3.70;;;;;;;;;;5031562;28;20052;-86
2024/03/30 07:12:47;;;;;;;7.30;2.35;;;;;;;;;;5013804;28;20033;-86
2024/03/30 07:15:14;;;;;;;18.27;4.82;;;;;;;;;;5039892;28;20030;-86
2024/03/30 07:17:40;;;;;;;25.67;5.70;;;;;;;;;;5035766;28;20037;-86
2024/03/30 07:20:06;;;;;;;17.50;4.82;;;;;;;;;;5033058;28;20029;-88
2024/03/30 07:22:32;;;;;;;20.65;3.22;;;;;;;;;;5016580;28;20041;-85
2024/03/30 07:24:58;;;;;;;18.27;4.68;;;;;;;;;;4999637;28;20196;-87
2024/03/30 07:27:24;;;;;;;7.40;3.17;;;;;;;;;;5030841;28;20073;-86
2024/03/30 07:29:50;;;;;;;19.25;2.63;;;;;;;;;;5011570;28;20139;-85
2024/03/30 07:32:16;;;;;;;13.95;2.65;;;;;;;;;;5027136;28;20044;-86
2024/03/30 07:34:47;;;;;;;17.60;4.70;;;;;;;;;;5012010;28;20034;-86
2024/03/30 07:37:13;;;;;;;15.65;3.35;;;;;;;;;;5003607;28;20046;-85
2024/03/30 07:39:43;;;;;;;13.60;3.97;;;;;;;;;;5009451;28;20037;-86
2024/03/30 07:42:09;;;;;;;13.68;3.63;;;;;;;;;;5033355;28;20532;-87
2024/03/30 07:44:35;;;;;;;14.85;4.38;;;;;;;;;;5016462;28;20698;-86
2024/03/30 07:47:02;;;;;;;15.15;4.72;;;;;;;;;;5018733;28;20043;-87
2024/03/30 07:49:27;;;;;;;10.65;2.85;;;;;;;;;;5019444;28;20042;-86
2024/03/30 07:51:53;;;;;;;26.73;2.55;;;;;;;;;;5017333;28;20034;-86
2024/03/30 07:54:19;;;;;;;16.67;2.55;;;;;;;;;;5027839;28;20057;-86
2024/03/30 07:56:55;;;;;;;10.35;2.85;;;;;;;;;;5020437;28;20069;-86
2024/03/30 07:59:22;;;;;;;12.55;3.03;;;;;;;;;;5023655;28;20029;-86
2024/03/30 08:01:48;;;;;;;26.60;4.80;;;;;;;;;;5034965;28;20071;-86
2024/03/30 08:04:18;;;;;;;11.30;3.60;;;;;;;;;;5033904;28;20037;-85
2024/03/30 08:06:48;;;;;;;28.02;3.35;;;;;;;;;;5023641;28;20040;-85
2024/03/30 08:09:14;;;;;;;7.93;2.08;;;;;;;;;;5020431;28;20037;-86
2024/03/30 08:11:40;;;;;;;15.95;5.05;;;;;;;;;;5030588;28;20037;-86
2024/03/30 08:14:06;;;;;;;12.95;3.65;;;;;;;;;;5018431;28;20499;-86
2024/03/30 08:16:33;;;;;;;9.05;2.88;;;;;;;;;;5014951;28;20045;-86
2024/03/30 08:19:02;;;;;;;12.35;2.55;;;;;;;;;;5034968;28;20032;-86
2024/03/30 08:21:28;;;;;;;22.00;3.47;;;;;;;;;;5016772;28;20406;-85
2024/03/30 08:23:54;;;;;;;32.53;4.07;;;;;;;;;;5036516;28;20040;-84
2024/03/30 08:26:20;;;;;;;17.67;3.70;;;;;;;;;;5032399;28;20034;-86
2024/03/30 08:28:46;;;;;;;15.10;4.38;;;;;;;;;;5030484;28;20030;-85
2024/03/30 08:31:13;;;;;;;34.40;4.20;;;;;;;;;;5032446;28;20034;-85
2024/03/30 08:33:39;;;;;;;14.07;2.85;;;;;;;;;;5033005;28;20108;-86
2024/03/30 08:36:05;;;;;;;33.42;3.75;;;;;;;;;;5031440;28;20534;-85
2024/03/30 08:38:31;;;;;;;11.27;2.67;;;;;;;;;;5033107;28;20048;-85
2024/03/30 08:40:57;;;;;;;32.97;4.88;;;;;;;;;;5031297;28;20029;-85
2024/03/30 08:43:25;;;;;;;24.85;4.80;;;;;;;;;;5038939;28;20485;-85
2024/03/30 08:45:52;;;;;;;17.10;2.53;;;;;;;;;;5017700;28;20025;-85
2024/03/30 08:48:18;;;;;;;23.92;5.63;;;;;;;;;;5030041;28;20048;-84
2024/03/30 08:50:44;;;;;;;32.85;3.65;;;;;;;;;;5030602;28;20140;-85
2024/03/30 08:53:10;;;;;;;17.25;2.83;;;;;;;;;;5018835;28;20045;-88
2024/03/30 08:55:40;;;;;;;11.93;1.80;;;;;;;;;;5019582;28;20026;-87
2024/03/30 08:58:06;;;;;;;26.02;3.58;;;;;;;;;;5025075;28;20030;-85
2024/03/30 09:00:32;;;;;;;27.75;4.00;;;;;;;;;;5024154;28;20036;-86
2024/03/30 09:02:58;;;;;;;43.42;4.72;;;;;;;;;;5016096;28;20063;-89
2024/03/30 09:05:28;;;;;;;16.77;3.65;;;;;;;;;;5021024;28;20061;-88
2024/03/30 09:07:54;;;;;;;20.63;4.53;;;;;;;;;;5030063;28;20033;-87
2024/03/30 09:10:21;;;;;;;14.43;4.32;;;;;;;;;;5014559;28;20044;-90
2024/03/30 09:12:47;;;;;;;25.38;4.82;;;;;;;;;;5013573;28;20037;-90
2024/03/30 09:15:13;;;;;;;13.65;4.03;;;;;;;;;;5031162;28;20111;-89
2024/03/30 09:17:39;;;;;;;18.90;3.42;;;;;;;;;;5032311;28;20033;-88
2024/03/30 09:20:06;;;;;;;19.00;4.20;;;;;;;;;;5017876;28;20067;-88
2024/03/30 09:22:32;;;;;;;18.77;3.05;;;;;;;;;;5013894;28;20132;-88
2024/03/30 09:25:01;;;;;;;11.23;4.10;;;;;;;;;;5013018;28;20538;-88
2024/03/30 09:27:28;;;;;;;16.10;2.70;;;;;;;;;;5012632;28;20040;-88
2024/03/30 09:29:54;;;;;;;10.15;3.63;;;;;;;;;;5013415;28;20061;-87
2024/03/30 09:32:20;;;;;;;24.60;3.80;;;;;;;;;;5013805;28;20069;-88
2024/03/30 09:34:46;;;;;;;16.80;3.63;;;;;;;;;;5029664;28;20033;-88
2024/03/30 09:37:14;;;;;;;21.83;5.82;;;;;;;;;;5011798;28;20128;-87
2024/03/30 09:39:40;;;;;;;19.20;3.45;;;;;;;;;;5031028;28;20029;-88
2024/03/30 09:42:12;;;;;;;11.52;3.60;;;;;;;;;;5016015;28;20148;-88
2024/03/30 09:44:38;;;;;;;7.15;3.95;;;;;;;;;;5013163;28;20042;-88
2024/03/30 09:47:04;;;;;;;17.13;3.75;;;;;;;;;;5011553;28;20057;-88
2024/03/30 09:49:32;;;;;;;18.75;4.60;;;;;;;;;;5013230;28;20041;-88
2024/03/30 09:52:04;;;;;;;13.48;3.00;;;;;;;;;;5013750;28;20033;-87
2024/03/30 09:54:31;;;;;;;25.83;4.03;;;;;;;;;;5027592;28;20033;-88
2024/03/30 09:56:57;;;;;;;17.67;3.13;;;;;;;;;;5014285;28;20076;-88
2024/03/30 09:59:24;;;;;;;36.58;5.50;;;;;;;;;;5030329;28;20069;-88
2024/03/30 10:01:50;;;;;;;31.13;5.18;;;;;;;;;;5043418;28;20028;-88
2024/03/30 10:04:16;;;;;;;18.58;3.05;;;;;;;;;;5016006;28;20037;-89
2024/03/30 10:06:54;;;;;;;17.13;2.60;;;;;;;;;;5030190;28;20474;-88
2024/03/30 10:09:25;;;;;;;19.50;4.75;;;;;;;;;;5016990;28;20045;-88
2024/03/30 10:11:53;;;;;;;22.80;5.13;;;;;;;;;;5007644;28;20037;-87
2024/03/30 10:14:43;;;;;;;19.83;2.88;;;;;;;;;;5023488;28;20495;-88
2024/03/30 10:17:10;;;;;;;23.33;4.68;;;;;;;;;;5003127;28;20067;-87
2024/03/30 10:19:36;;;;;;;8.48;3.40;;;;;;;;;;5028096;28;20036;-88
2024/03/30 10:22:03;;;;;;;11.02;3.35;;;;;;;;;;5004527;28;20065;-87
2024/03/30 10:24:30;;;;;;;8.93;2.03;;;;;;;;;;5018432;28;20040;-87
2024/03/30 10:26:56;;;;;;;11.95;4.07;;;;;;;;;;5031510;28;20036;-87
2024/03/30 10:29:22;;;;;;;25.88;3.22;;;;;;;;;;5017481;28;20100;-88
2024/03/30 10:31:48;;;;;;;18.10;4.22;;;;;;;;;;5021375;28;20073;-88
2024/03/30 10:34:14;;;;;;;12.48;3.92;;;;;;;;;;5022828;28;20025;-88
2024/03/30 10:36:41;;;;;;;11.02;4.25;;;;;;;;;;5015061;28;20045;-87
2024/03/30 10:39:07;;;;;;;27.55;3.55;;;;;;;;;;5014901;28;20029;-88
2024/03/30 10:41:33;;;;;;;31.15;5.53;;;;;;;;;;5031195;28;20578;-88
2024/03/30 10:43:59;;;;;;;10.20;1.52;;;;;;;;;;5013877;28;20499;-88
2024/03/30 10:46:25;;;;;;;17.77;5.13;;;;;;;;;;5021183;28;20037;-88
2024/03/30 10:48:54;;;;;;;48.22;4.22;;;;;;;;;;5015590;28;20138;-88
2024/03/30 10:51:21;;;;;;;8.80;4.70;;;;;;;;;;5032119;28;20136;-88
2024/03/30 10:53:50;;;;;;;16.88;3.40;;;;;;;;;;5015481;28;20041;-88
2024/03/30 10:56:17;;;;;;;23.75;5.43;;;;;;;;;;5016918;28;20029;-88
2024/03/30 10:58:43;;;;;;;16.20;6.75;;;;;;;;;;5013296;28;20419;-87
2024/03/30 11:01:09;;;;;;;19.80;4.85;;;;;;;;;;5025838;28;20095;-87
2024/03/30 11:03:35;;;;;;;21.00;3.15;;;;;;;;;;5018045;28;20088;-87
2024/03/30 11:06:02;;;;;;;14.93;4.78;;;;;;;;;;5017566;28;20030;-88
2024/03/30 11:08:28;;;;;;;23.58;3.92;;;;;;;;;;5026608;28;20038;-88
2024/03/30 11:10:54;;;;;;;5.13;1.50;;;;;;;;;;5033573;28;20033;-87
2024/03/30 11:13:21;;;;;;;24.90;3.40;;;;;;;;;;5016617;28;20415;-87
2024/03/30 11:15:47;;;;;;;15.65;3.40;;;;;;;;;;5017662;28;20026;-88
2024/03/30 11:18:21;;;;;;;19.98;4.38;;;;;;;;;;5023337;28;20029;-88
2024/03/30 11:21:14;;;;;;;5.28;4.00;;;;;;;;;;5018329;28;20029;-87
2024/03/30 11:23:40;;;;;;;19.80;3.97;;;;;;;;;;5016078;28;20526;-88
2024/03/30 11:26:09;;;;;;;24.63;5.32;;;;;;;;;;5013125;28;20025;-89
2024/03/30 11:28:39;;;;;;;26.00;7.00;;;;;;;;;;5024751;28;20026;-87
2024/03/30 11:31:10;;;;;;;21.67;5.82;;;;;;;;;;5025569;28;20038;-88
2024/03/30 11:33:45;;;;;;;13.75;3.13;;;;;;;;;;5031688;28;20083;-88
2024/03/30 11:36:17;;;;;;;27.67;3.72;;;;;;;;;;5019765;28;20040;-88
2024/03/30 11:38:47;;;;;;;16.63;3.92;;;;;;;;;;5021040;28;20029;-88
2024/03/30 11:41:16;;;;;;;10.85;3.58;;;;;;;;;;5033640;28;20038;-87
2024/03/30 11:43:46;;;;;;;8.77;2.42;;;;;;;;;;5019943;28;20037;-88
2024/03/30 11:46:13;;;;;;;11.93;2.15;;;;;;;;;;5030769;28;20119;-88
2024/03/30 11:48:40;;;;;;;9.93;3.70;;;;;;;;;;5046084;28;20045;-88
2024/03/30 11:51:15;;;;;;;24.23;4.15;;;;;;;;;;5037318;28;20049;-88
2024/03/30 11:53:41;;;;;;;17.20;4.40;;;;;;;;;;5017872;28;20124;-88
2024/03/30 11:56:09;;;;;;;28.95;3.75;;;;;;;;;;5015762;28;20057;-88
2024/03/30 11:58:35;;;;;;;9.70;4.32;;;;;;;;;;5019577;28;20025;-88
2024/03/30 12:01:02;;;;;;;16.15;4.28;;;;;;;;;;5023648;28;20025;-85
2024/03/30 12:03:31;;;;;;;11.00;4.28;;;;;;;;;;5024786;28;20029;-87
2024/03/30 12:05:59;;;;;;;14.88;3.65;;;;;;;;;;5028077;28;20029;-88
2024/03/30 12:08:28;;;;;;;7.57;2.33;;;;;;;;;;5014667;28;20037;-88
2024/03/30 12:10:58;;;;;;;11.98;3.40;;;;;;;;;;5023381;28;20075;-86
2024/03/30 12:13:28;;;;;;;10.10;3.22;;;;;;;;;;5019455;28;20033;-88
2024/03/30 12:15:56;;;;;;;5.65;2.85;;;;;;;;;;5014765;28;20113;-88
2024/03/30 12:18:23;;;;;;;14.27;2.50;;;;;;;;;;5031082;28;20040;-85
2024/03/30 12:20:49;;;;;;;22.48;3.95;;;;;;;;;;5026343;28;20022;-85
2024/03/30 12:23:17;;;;;;;8.93;3.95;;;;;;;;;;5014725;28;20048;-86
2024/03/30 12:25:44;;;;;;;16.58;2.88;;;;;;;;;;5032763;28;20022;-86
2024/03/30 12:28:10;;;;;;;18.13;4.93;;;;;;;;;;5014081;28;20468;-86
2024/03/30 12:31:03;;;;;;;24.65;3.65;;;;;;;;;;5031494;28;20033;-86
2024/03/30 12:33:30;;;;;;;7.25;4.05;;;;;;;;;;5026760;28;20513;-86
2024/03/30 12:35:56;;;;;;;19.70;2.83;;;;;;;;;;5011962;28;20029;-85
2024/03/30 12:38:23;;;;;;;13.80;3.60;;;;;;;;;;5038205;28;20029;-86
2024/03/30 12:40:49;;;;;;;6.10;1.52;;;;;;;;;;5019538;28;20021;-85
2024/03/30 12:43:15;;;;;;;13.52;3.85;;;;;;;;;;5019974;28;20036;-86
2024/03/30 12:45:41;;;;;;;6.40;1.92;;;;;;;;;;5034513;28;20049;-86
2024/03/30 12:48:08;;;;;;;4.53;1.83;;;;;;;;;;5034397;28;20037;-86
2024/03/30 12:50:34;;;;;;;7.80;2.08;;;;;;;;;;5015479;28;20049;-86
2024/03/30 12:53:01;;;;;;;8.63;3.25;;;;;;;;;;5021559;28;20075;-86
2024/03/30 12:55:28;;;;;;;12.85;3.50;;;;;;;;;;5025535;28;20057;-86
2024/03/30 12:57:56;;;;;;;8.63;2.45;;;;;;;;;;5031564;28;20100;-84
2024/03/30 13:00:22;;;;;;;4.85;2.28;;;;;;;;;;5033233;28;20082;-87
2024/03/30 13:02:55;;;;;;;7.70;1.33;;;;;;;;;;5035374;28;20042;-87
2024/03/30 13:05:22;;;;;;;4.65;1.88;;;;;;;;;;5033959;28;20529;-87
2024/03/30 13:07:48;;;;;;;20.67;4.70;;;;;;;;;;5014071;28;20033;-87
2024/03/30 13:10:15;;;;;;;8.90;2.72;;;;;;;;;;5034444;28;20037;-86
2024/03/30 13:12:42;;;;;;;5.53;1.67;;;;;;;;;;5033643;28;20029;-87
2024/03/30 13:15:08;;;;;;;9.10;0.93;;;;;;;;;;5016213;28;20037;-86
2024/03/30 13:17:34;;;;;;;7.88;3.33;;;;;;;;;;5021106;28;20119;-87
2024/03/30 13:20:00;;;;;;;4.97;2.95;;;;;;;;;;5018064;28;20061;-87
2024/03/30 13:22:26;;;;;;;18.08;3.60;;;;;;;;;;5024706;28;20148;-87
2024/03/30 13:24:52;;;;;;;5.53;2.25;;;;;;;;;;5015063;28;20467;-87
2024/03/30 13:27:19;;;;;;;10.73;2.85;;;;;;;;;;5014616;28;20075;-86
2024/03/30 13:29:45;;;;;;;12.75;3.47;;;;;;;;;;5014937;28;20036;-86
2024/03/30 13:32:11;;;;;;;5.63;1.20;;;;;;;;;;5028314;28;20608;-86
2024/03/30 13:34:39;;;;;;;7.65;3.33;;;;;;;;;;5035038;28;20136;-85
2024/03/30 13:37:05;;;;;;;2.65;1.48;;;;;;;;;;5031857;28;20068;-87
2024/03/30 13:39:32;;;;;;;8.27;1.55;;;;;;;;;;5021112;28;20042;-86
2024/03/30 13:41:58;;;;;;;6.00;1.55;;;;;;;;;;5012495;28;20036;-89
2024/03/30 13:44:24;;;;;;;5.10;2.03;;;;;;;;;;5016443;28;20033;-88
2024/03/30 13:46:50;;;;;;;17.10;1.85;;;;;;;;;;5035749;28;20232;-89
2024/03/30 13:49:16;;;;;;;17.92;2.65;;;;;;;;;;5016325;28;20037;-90
2024/03/30 13:51:42;;;;;;;4.15;1.38;;;;;;;;;;5014287;28;20600;-90
2024/03/30 13:54:08;;;;;;;9.63;3.75;;;;;;;;;;5025953;28;20034;-89
2024/03/30 13:56:34;;;;;;;9.38;0.77;;;;;;;;;;5019332;28;20037;-90
2024/03/30 13:59:00;;;;;;;19.27;2.42;;;;;;;;;;5013352;28;20343;-92
2024/03/30 14:01:26;;;;;;;8.10;2.42;;;;;;;;;;5020894;28;20244;-88
2024/03/30 14:14:11;;;;;;;17.33;2.35;;;;;;;;;;5010628;28;20056;-88
2024/03/30 14:16:43;;;;;;;7.50;2.80;;;;;;;;;;4990930;28;20498;-84
2024/03/30 14:19:30;;;;;;;3.35;0.95;;;;;;;;;;4981298;28;20042;-85
2024/03/30 14:22:24;;;;;;;5.53;3.13;;;;;;;;;;5002011;28;20046;-83
2024/03/30 14:24:50;;;;;;;9.25;1.65;;;;;;;;;;5006905;28;20045;-86
2024/03/30 14:27:17;;;;;;;6.07;2.00;;;;;;;;;;4988987;28;20034;-87
2024/03/30 14:29:43;;;;;;;9.13;3.08;;;;;;;;;;4991693;28;20042;-86
2024/03/30 14:32:10;;;;;;;9.00;2.03;;;;;;;;;;4992213;28;20037;-87
2024/03/30 14:34:47;;;;;;;11.10;1.55;;;;;;;;;;4991693;28;20128;-83
2024/03/30 14:37:15;;;;;;;8.10;2.63;;;;;;;;;;4988903;28;20026;-84
2024/03/30 14:39:41;;;;;;;3.83;0.93;;;;;;;;;;5007435;28;20128;-83
2024/03/30 14:42:09;;;;;;;7.93;2.47;;;;;;;;;;4999383;28;20042;-84
2024/03/30 14:44:35;;;;;;;19.88;4.03;;;;;;;;;;5015772;28;20061;-83
2024/03/30 14:47:01;;;;;;;7.78;1.90;;;;;;;;;;4988854;28;20030;-85
2024/03/30 14:49:27;;;;;;;9.50;1.80;;;;;;;;;;5009448;28;20414;-84
2024/03/30 14:56:57;;;;;;;20.38;2.40;;;;;;;;;;5028561;28;20045;-88